Time;durP1;ratioP1;P1;durP2;ratioP2;P2;SDS_P1;SDS_P2;PMS_P1;PMS_P2;Temp;Humidity;BMP_temperature;BMP_pressure;BME280_temperature;BME280_humidity;BME280_pressure;Samples;Min_cycle;Max_cycle;Signal;HPM_P1;HPM_P2
2020/12/25 01:20:35;;;;;;;2.00;1.07;;;;;;;;;;5079892;27;20141;-55
2020/12/25 01:26:34;;;;;;;2.40;1.27;;;;;;;;;;5025204;28;20302;-54
2020/12/25 01:29:16;;;;;;;1.53;1.10;;;;;;;;;;5063312;28;20033;-55
2020/12/25 01:32:01;;;;;;;1.90;0.80;;;;;;;;;;5063168;28;20052;-54
2020/12/25 01:34:30;;;;;;;7.13;1.67;;;;;;;;;;5063082;28;20060;-56
2020/12/25 01:37:48;;;;;;;1.10;0.70;;;;;;;;;;5063248;28;20056;-55
2020/12/25 01:40:37;;;;;;;2.60;1.00;;;;;;;;;;4945484;28;20591;-56
2020/12/25 01:43:23;;;;;;;2.20;1.33;;;;;;;;;;4927071;29;20153;-55
2020/12/25 01:46:13;;;;;;;3.53;1.53;;;;;;;;;;4962535;28;20036;-56
2020/12/25 01:52:12;;;;;;;1.37;0.83;;;;;;;;;;4936573;29;20035;-56
2020/12/25 01:54:57;;;;;;;2.50;1.37;;;;;;;;;;5063051;28;20029;-56
2020/12/25 02:00:38;;;;;;;2.60;2.20;;;;;;;;;;5054694;28;20041;-54
2020/12/25 02:03:39;;;;;;;2.50;1.60;;;;;;;;;;5063655;28;20029;-58
2020/12/25 02:06:23;;;;;;;2.83;2.10;;;;;;;;;;5063086;28;20025;-57
2020/12/25 02:09:19;;;;;;;1.57;1.47;;;;;;;;;;5056697;28;20030;-57
2020/12/25 02:12:23;;;;;;;3.97;3.00;;;;;;;;;;5042547;28;20132;-55
2020/12/25 02:21:16;;;;;;;3.37;2.90;;;;;;;;;;4970905;28;20042;-57
2020/12/25 02:24:04;;;;;;;;;;;;;;;;;;;;;
2020/12/25 02:29:55;;;;;;;3.60;2.67;;;;;;;;;;4927226;29;20176;-58
2020/12/25 02:32:47;;;;;;;5.93;3.90;;;;;;;;;;4919540;29;20037;-57
2020/12/25 02:38:46;;;;;;;9.97;3.93;;;;;;;;;;4968426;29;20436;-57
2020/12/25 02:41:29;;;;;;;4.10;3.00;;;;;;;;;;4987160;28;20487;-57
2020/12/25 02:47:00;;;;;;;8.83;5.23;;;;;;;;;;5015139;28;20026;-57
2020/12/25 02:49:39;;;;;;;5.20;3.47;;;;;;;;;;5028109;28;20042;-56
2020/12/25 02:52:39;;;;;;;8.77;5.60;;;;;;;;;;5028469;28;20034;-58
2020/12/25 02:55:32;;;;;;;4.83;3.77;;;;;;;;;;5027920;28;20045;-58
2020/12/25 03:01:16;;;;;;;4.13;3.73;;;;;;;;;;5027748;28;20034;-57
2020/12/25 03:03:57;;;;;;;5.33;4.57;;;;;;;;;;5010306;28;20049;-58
2020/12/25 03:06:37;;;;;;;6.23;5.33;;;;;;;;;;5028306;28;20042;-58
2020/12/25 03:09:23;;;;;;;7.90;5.37;;;;;;;;;;5027563;28;20030;-57
2020/12/25 03:12:21;;;;;;;7.17;4.97;;;;;;;;;;5028491;28;20030;-56
2020/12/25 03:15:03;;;;;;;4.80;3.80;;;;;;;;;;5022215;28;20037;-58
2020/12/25 03:20:53;;;;;;;4.97;3.87;;;;;;;;;;5028237;28;20050;-58
2020/12/25 03:23:34;;;;;;;6.13;4.07;;;;;;;;;;5027217;28;20357;-58
2020/12/25 03:26:22;;;;;;;6.22;4.70;;;;;;;;;;5028900;28;20398;-57
2020/12/25 03:29:13;;;;;;;5.07;3.70;;;;;;;;;;5028022;28;20842;-58
2020/12/25 08:54:06;;;;;;;8.27;7.07;;;;;;;;;;5134431;27;20419;-57
2020/12/25 08:56:56;;;;;;;11.87;8.03;;;;;;;;;;5117706;28;20142;-57
2020/12/25 08:59:40;;;;;;;9.73;7.70;;;;;;;;;;5109811;28;20046;-58
2020/12/25 09:02:40;;;;;;;11.23;8.30;;;;;;;;;;5086608;28;20215;-56
2020/12/25 09:05:42;;;;;;;10.02;6.13;;;;;;;;;;5086966;28;20076;-57
2020/12/25 09:08:10;;;;;;;;;;;;;;;;;;5087481;28;20370;-59
2020/12/25 09:10:40;;;;;;;12.07;7.93;;;;;;;;;;5087945;28;19977;-58
2020/12/25 09:13:14;;;;;;;12.40;9.53;;;;;;;;;;5088212;28;20021;-57
2020/12/25 09:16:00;;;;;;;;;;;;;;;;;;;;;
2020/12/25 09:18:53;;;;;;;9.80;7.37;;;;;;;;;;5089550;28;20396;-58
2020/12/25 09:21:40;;;;;;;9.90;8.67;;;;;;;;;;5089280;28;20028;-59
2020/12/25 09:27:25;;;;;;;15.07;10.27;;;;;;;;;;5088235;28;20028;-56
2020/12/25 09:30:00;;;;;;;12.23;10.87;;;;;;;;;;5090088;28;20500;-58
2020/12/25 09:32:50;;;;;;;11.43;8.87;;;;;;;;;;5088378;28;20032;-56
2020/12/25 09:38:47;;;;;;;;;;;;;;;;;;;;;
2020/12/25 09:41:52;;;;;;;14.70;9.43;;;;;;;;;;5027134;28;20040;-54
2020/12/25 09:45:03;;;;;;;;;;;;;;;;;;;;;
2020/12/25 09:47:48;;;;;;;12.67;10.10;;;;;;;;;;5062842;28;20028;-57
2020/12/25 09:50:26;;;;;;;14.40;9.27;;;;;;;;;;5082077;28;20036;-57
2020/12/25 09:53:05;;;;;;;11.37;10.20;;;;;;;;;;5062459;28;20044;-58
2020/12/25 09:55:43;;;;;;;14.43;10.70;;;;;;;;;;5054530;28;20036;-57
2020/12/25 09:58:28;;;;;;;13.87;9.20;;;;;;;;;;5054226;28;20446;-57
2020/12/25 10:01:16;;;;;;;9.53;7.00;;;;;;;;;;5065842;28;20144;-57
2020/12/25 10:12:52;;;;;;;13.67;8.30;;;;;;;;;;5031592;28;20390;-56
2020/12/25 10:18:43;;;;;;;10.18;7.97;;;;;;;;;;5041069;28;20039;-55
2020/12/25 10:21:16;;;;;;;11.07;8.60;;;;;;;;;;5063661;28;20554;-56
2020/12/25 10:23:49;;;;;;;9.33;8.03;;;;;;;;;;5056962;28;20086;-58
2020/12/25 10:26:39;;;;;;;11.67;8.33;;;;;;;;;;5060412;28;20052;-57
2020/12/25 10:29:28;;;;;;;14.53;8.23;;;;;;;;;;5058802;28;20068;-57
2020/12/25 10:32:24;;;;;;;8.27;6.97;;;;;;;;;;5047373;28;20033;-58
2020/12/25 10:35:25;;;;;;;8.63;6.77;;;;;;;;;;5063688;28;20087;-57
2020/12/25 10:38:20;;;;;;;10.50;7.50;;;;;;;;;;5059266;28;20104;-59
2020/12/25 10:41:06;;;;;;;11.90;7.53;;;;;;;;;;5054793;28;20033;-58
2020/12/25 10:44:06;;;;;;;;;;;;;;;;;;;;;
2020/12/25 10:46:59;;;;;;;15.13;7.23;;;;;;;;;;5051174;28;20359;-56
2020/12/25 10:49:40;;;;;;;8.57;6.70;;;;;;;;;;5015670;28;20033;-59
2020/12/25 10:52:38;;;;;;;10.27;7.90;;;;;;;;;;5063125;28;20051;-56
2020/12/25 10:58:40;;;;;;;9.52;5.45;;;;;;;;;;5030280;28;20308;-58
2020/12/25 11:01:31;;;;;;;7.75;6.78;;;;;;;;;;5062292;28;20037;-57
2020/12/25 11:14:03;;;;;;;8.17;6.77;;;;;;;;;;5001837;28;20053;-56
2020/12/25 11:16:41;;;;;;;10.43;7.77;;;;;;;;;;5011491;28;20030;-58
2020/12/25 11:22:25;;;;;;;7.80;5.75;;;;;;;;;;5053610;28;20116;-56
2020/12/25 11:24:51;;;;;;;11.07;6.63;;;;;;;;;;5042014;28;20033;-56
2020/12/25 11:27:48;;;;;;;11.30;6.27;;;;;;;;;;5067263;28;20408;-54
2020/12/25 11:33:38;;;;;;;6.90;5.83;;;;;;;;;;5031091;28;20032;-56
2020/12/25 11:36:10;;;;;;;9.98;6.50;;;;;;;;;;5056223;28;20068;-57
2020/12/25 11:39:10;;;;;;;8.10;6.83;;;;;;;;;;5062561;28;20032;-56
2020/12/25 11:41:49;;;;;;;6.83;4.97;;;;;;;;;;5073236;28;20036;-58
2020/12/25 11:44:39;;;;;;;8.63;5.87;;;;;;;;;;5056557;28;20040;-58
2020/12/25 11:47:12;;;;;;;6.25;5.35;;;;;;;;;;5057678;28;20370;-58
2020/12/25 11:50:07;;;;;;;10.13;6.03;;;;;;;;;;5063949;28;20535;-58
2020/12/25 11:52:45;;;;;;;7.60;5.70;;;;;;;;;;5051761;28;20052;-58
2020/12/25 11:55:20;;;;;;;8.00;5.37;;;;;;;;;;5049333;28;20474;-58
2020/12/25 11:57:55;;;;;;;10.70;5.57;;;;;;;;;;5062506;28;20037;-58
2020/12/25 12:00:52;;;;;;;9.20;7.10;;;;;;;;;;5053649;28;20112;-58
2020/12/25 12:03:33;;;;;;;;;;;;;;;;;;;;;
2020/12/25 12:06:35;;;;;;;10.60;5.47;;;;;;;;;;5070035;28;20025;-58
2020/12/25 12:12:43;;;;;;;7.10;6.13;;;;;;;;;;5054496;28;20131;-57
2020/12/25 12:15:27;;;;;;;2.43;1.43;;;;;;;;;;5006929;28;20543;-58
2020/12/25 12:21:21;;;;;;;9.77;6.53;;;;;;;;;;5031196;28;20043;-56
2020/12/25 12:30:36;;;;;;;9.50;5.10;;;;;;;;;;5046629;28;20037;-58
2020/12/25 12:33:16;;;;;;;9.53;6.13;;;;;;;;;;5058632;28;20130;-59
2020/12/25 12:35:52;;;;;;;7.13;5.97;;;;;;;;;;5066817;28;20398;-58
2020/12/25 12:38:54;;;;;;;;;;;;;;;;;;;;;
2020/12/25 12:41:47;;;;;;;12.20;5.63;;;;;;;;;;5023167;28;20043;-57
2020/12/25 12:44:31;;;;;;;6.07;5.33;;;;;;;;;;5052797;28;20140;-57
2020/12/25 12:53:21;;;;;;;6.27;5.07;;;;;;;;;;5050045;28;20044;-57
2020/12/25 12:56:08;;;;;;;;;;;;;;;;;;;;;
2020/12/25 12:59:07;;;;;;;;;;;;;;;;;;;;;
2020/12/25 13:01:52;;;;;;;9.50;5.70;;;;;;;;;;5039996;28;20128;-55
2020/12/25 13:04:34;;;;;;;7.53;5.60;;;;;;;;;;5068099;28;20145;-54
2020/12/25 13:07:04;;;;;;;7.20;5.00;;;;;;;;;;5055638;28;20037;-57
2020/12/25 13:12:32;;;;;;;8.87;4.17;;;;;;;;;;5051667;28;20040;-57
2020/12/25 13:15:25;;;;;;;7.00;4.57;;;;;;;;;;5060164;28;20045;-59
2020/12/25 13:18:17;;;;;;;5.93;3.70;;;;;;;;;;5037713;28;20041;-56
2020/12/25 13:30:32;;;;;;;6.07;4.97;;;;;;;;;;5042582;28;20033;-58
2020/12/25 13:33:13;;;;;;;6.53;4.70;;;;;;;;;;5038749;28;20280;-58
2020/12/25 13:36:17;;;;;;;;;;;;;;;;;;;;;
2020/12/25 13:41:44;;;;;;;9.43;4.50;;;;;;;;;;5035562;28;20063;-58
2020/12/25 13:44:28;;;;;;;9.23;5.87;;;;;;;;;;5049243;28;20029;-58
2020/12/25 13:47:16;;;;;;;5.13;4.07;;;;;;;;;;5044657;28;20414;-57
2020/12/25 13:50:11;;;;;;;6.50;3.40;;;;;;;;;;5037691;28;20344;-57
2020/12/25 13:53:09;;;;;;;5.87;4.47;;;;;;;;;;5047914;28;20041;-55
2020/12/25 13:55:54;;;;;;;6.07;4.17;;;;;;;;;;5035616;28;20063;-58
2020/12/25 13:58:47;;;;;;;13.17;5.00;;;;;;;;;;5076121;28;20128;-58
2020/12/25 14:04:12;;;;;;;5.93;3.60;;;;;;;;;;5043799;28;20037;-57
2020/12/25 14:07:00;;;;;;;;;;;;;;;;;;;;;
2020/12/25 14:09:35;;;;;;;5.97;3.50;;;;;;;;;;5034548;28;20075;-58
2020/12/25 14:15:17;;;;;;;4.47;3.10;;;;;;;;;;5035588;28;20046;-58
2020/12/25 14:17:49;;;;;;;9.10;4.60;;;;;;;;;;5035873;28;20112;-58
2020/12/25 14:20:30;;;;;;;4.97;3.80;;;;;;;;;;5035959;28;20037;-56
2020/12/25 14:23:45;;;;;;;4.50;3.80;;;;;;;;;;5044950;28;20060;-56
2020/12/25 14:26:48;;;;;;;;;;;;;;;;;;;;;
2020/12/25 14:32:32;;;;;;;5.53;3.07;;;;;;;;;;5047083;28;20040;-57
2020/12/25 14:35:17;;;;;;;4.83;3.27;;;;;;;;;;5060146;28;20051;-55
2020/12/25 14:38:19;;;;;;;;;;;;;;;;;;;;;
2020/12/25 14:41:09;;;;;;;;;;;;;;;;;;;;;
2020/12/25 14:44:06;;;;;;;;;;;;;;;;;;;;;
2020/12/25 14:52:47;;;;;;;5.53;4.17;;;;;;;;;;5044485;28;20037;-55
2020/12/25 14:58:55;;;;;;;6.80;4.70;;;;;;;;;;5065268;28;20067;-53
2020/12/25 15:01:43;;;;;;;5.10;2.70;;;;;;;;;;4986291;28;20081;-58
2020/12/25 15:04:14;;;;;;;3.83;3.10;;;;;;;;;;5071296;28;20036;-56
2020/12/25 15:10:01;;;;;;;6.20;3.47;;;;;;;;;;4998779;28;20034;-58
2020/12/25 15:12:40;;;;;;;5.35;2.97;;;;;;;;;;5007081;28;20045;-54
2020/12/25 15:18:33;;;;;;;4.40;2.77;;;;;;;;;;5053685;28;20490;-55
2020/12/25 15:21:35;;;;;;;4.30;3.10;;;;;;;;;;5084639;28;20127;-55
2020/12/25 15:27:23;;;;;;;4.87;3.17;;;;;;;;;;5056339;28;20032;-57
2020/12/25 15:30:13;;;;;;;7.70;3.43;;;;;;;;;;5060738;28;20035;-57
2020/12/25 15:33:09;;;;;;;6.57;3.85;;;;;;;;;;5059513;28;20037;-52
2020/12/25 15:39:13;;;;;;;;;;;;;;;;;;;;;
2020/12/25 15:41:40;;;;;;;4.53;3.27;;;;;;;;;;5050689;28;20116;-55
2020/12/25 15:44:28;;;;;;;4.70;3.20;;;;;;;;;;5051953;28;20585;-56
2020/12/25 15:47:10;;;;;;;6.57;3.37;;;;;;;;;;5071317;28;20036;-56
2020/12/25 15:49:42;;;;;;;3.30;2.60;;;;;;;;;;5054340;28;20082;-58
2020/12/25 15:55:51;;;;;;;5.30;3.40;;;;;;;;;;5053883;28;20037;-56
2020/12/25 15:58:58;;;;;;;5.80;3.63;;;;;;;;;;5045754;28;20482;-58
2020/12/25 16:01:46;;;;;;;4.37;3.10;;;;;;;;;;5020938;28;20045;-58
2020/12/25 16:07:09;;;;;;;5.13;3.97;;;;;;;;;;5068060;28;20043;-57
2020/12/25 16:09:55;;;;;;;5.23;4.13;;;;;;;;;;5052032;28;20482;-58
2020/12/25 16:12:40;;;;;;;4.73;3.50;;;;;;;;;;5052420;28;20036;-56
2020/12/25 16:15:26;;;;;;;4.83;3.47;;;;;;;;;;5052449;28;20489;-57
2020/12/25 16:21:29;;;;;;;5.90;3.93;;;;;;;;;;5026126;28;20036;-57
2020/12/25 16:24:23;;;;;;;3.73;3.03;;;;;;;;;;5054927;28;20037;-58
2020/12/25 16:44:30;;;;;;;4.70;3.73;;;;;;;;;;5058271;28;20504;-57
2020/12/25 16:50:29;;;;;;;;;;;;;;;;;;;;;
2020/12/25 16:53:08;;;;;;;5.93;3.10;;;;;;;;;;5069157;28;20048;-57
2020/12/25 17:07:12;;;;;;;4.37;2.83;;;;;;;;;;5065892;28;20043;-57
2020/12/25 17:09:53;;;;;;;5.70;3.60;;;;;;;;;;5059593;28;20037;-57
2020/12/25 17:12:35;;;;;;;;;;;;;;;;;;;;;
2020/12/25 17:15:13;;;;;;;4.47;3.13;;;;;;;;;;5063171;28;20030;-54
2020/12/25 17:21:09;;;;;;;;;;;;;;;;;;;;;
2020/12/25 17:23:52;;;;;;;5.10;3.17;;;;;;;;;;5054743;28;20045;-58
2020/12/25 17:29:56;;;;;;;4.83;3.50;;;;;;;;;;5034768;28;20033;-58
2020/12/25 17:36:27;;;;;;;5.13;2.83;;;;;;;;;;5036371;28;20033;-56
2020/12/25 17:39:35;;;;;;;;;;;;;;;;;;;;;
2020/12/25 17:42:36;;;;;;;6.93;3.00;;;;;;;;;;5058271;28;20039;-58
2020/12/25 17:45:19;;;;;;;3.90;2.63;;;;;;;;;;5076367;28;20024;-58
2020/12/25 17:48:11;;;;;;;6.00;3.33;;;;;;;;;;5076097;28;20025;-57
2020/12/25 17:51:16;;;;;;;;;;;;;;;;;;;;;
2020/12/25 17:54:25;;;;;;;4.47;3.10;;;;;;;;;;5075054;28;20119;-54
2020/12/25 17:57:19;;;;;;;;;;;;;;;;;;;;;
2020/12/25 18:00:18;;;;;;;5.70;4.23;;;;;;;;;;5035435;28;20128;-55
2020/12/25 18:06:06;;;;;;;5.03;3.47;;;;;;;;;;5035896;28;20052;-55
2020/12/25 18:11:44;;;;;;;5.67;3.97;;;;;;;;;;5047445;28;20033;-58
2020/12/25 18:14:48;;;;;;;8.37;4.43;;;;;;;;;;5033648;28;20411;-58
2020/12/25 18:17:34;;;;;;;5.13;3.93;;;;;;;;;;5025057;28;20117;-58
2020/12/25 18:20:18;;;;;;;3.93;2.90;;;;;;;;;;5024874;28;20076;-55
2020/12/25 18:23:12;;;;;;;4.93;3.37;;;;;;;;;;5070552;28;20489;-57
2020/12/25 18:25:41;;;;;;;5.80;4.17;;;;;;;;;;5053424;28;20482;-56
2020/12/25 18:28:29;;;;;;;5.17;4.43;;;;;;;;;;5053924;28;20103;-57
2020/12/25 18:30:58;;;;;;;5.70;4.27;;;;;;;;;;5076064;28;20125;-55
2020/12/25 18:33:59;;;;;;;6.73;4.30;;;;;;;;;;5073749;28;20032;-53
2020/12/25 18:36:28;;;;;;;;;;;;;;;;;;5074659;28;20106;-58
2020/12/25 18:39:16;;;;;;;5.37;4.20;;;;;;;;;;5073891;28;19911;-58
2020/12/25 18:41:49;;;;;;;5.50;4.33;;;;;;;;;;5060708;28;20025;-56
2020/12/25 18:44:41;;;;;;;6.23;3.73;;;;;;;;;;5056501;28;20029;-53
2020/12/25 18:47:16;;;;;;;6.60;4.73;;;;;;;;;;5011890;28;20424;-55
2020/12/25 18:50:02;;;;;;;6.37;5.13;;;;;;;;;;5012688;28;20093;-55
2020/12/25 18:52:40;;;;;;;6.47;4.47;;;;;;;;;;5001759;28;20137;-57
2020/12/25 18:55:12;;;;;;;8.43;3.43;;;;;;;;;;5008593;28;20042;-56
2020/12/25 18:57:55;;;;;;;5.10;4.07;;;;;;;;;;4993133;28;20100;-58
2020/12/25 19:01:06;;;;;;;4.83;3.30;;;;;;;;;;4972187;28;20037;-57
2020/12/25 19:03:32;;;;;;;4.43;3.47;;;;;;;;;;4989073;28;20066;-57
2020/12/25 19:09:21;;;;;;;3.35;2.47;;;;;;;;;;5057380;28;20097;-57
2020/12/25 19:11:49;;;;;;;5.07;4.13;;;;;;;;;;5059353;28;20029;-59
2020/12/25 19:14:45;;;;;;;5.77;4.30;;;;;;;;;;5054907;28;20032;-54
2020/12/25 19:17:25;;;;;;;;;;;;;;;;;;;;;
2020/12/25 19:20:07;;;;;;;;;;;;;;;;;;;;;
2020/12/25 19:22:39;;;;;;;5.37;4.27;;;;;;;;;;5043127;28;20025;-57
2020/12/25 19:25:46;;;;;;;4.33;3.90;;;;;;;;;;5052442;28;20036;-56
2020/12/25 19:28:40;;;;;;;5.40;3.20;;;;;;;;;;4972632;28;20031;-56
2020/12/25 19:31:29;;;;;;;5.27;3.83;;;;;;;;;;4928450;28;20034;-57
2020/12/25 19:37:16;;;;;;;5.37;4.00;;;;;;;;;;5035962;28;20307;-56
2020/12/25 19:40:07;;;;;;;4.73;3.57;;;;;;;;;;5033922;28;20025;-54
2020/12/25 19:43:06;;;;;;;7.53;3.77;;;;;;;;;;5099705;28;20032;-56
2020/12/25 19:49:24;;;;;;;;;;;;;;;;;;;;;
2020/12/25 19:52:13;;;;;;;5.60;4.07;;;;;;;;;;5069680;28;20141;-56
2020/12/25 19:55:01;;;;;;;7.57;4.50;;;;;;;;;;5068632;28;20040;-56
2020/12/25 19:57:52;;;;;;;5.27;3.57;;;;;;;;;;5053828;28;20020;-57
2020/12/25 20:00:46;;;;;;;9.55;4.63;;;;;;;;;;5052269;28;20063;-57
2020/12/25 20:09:33;;;;;;;5.93;3.83;;;;;;;;;;5059017;28;20482;-58
2020/12/25 20:15:26;;;;;;;;;;;;;;;;;;;;;
2020/12/25 20:21:05;;;;;;;5.33;4.77;;;;;;;;;;5011351;28;20029;-55
2020/12/25 20:23:52;;;;;;;6.20;5.03;;;;;;;;;;4995760;28;20038;-59
2020/12/25 20:26:52;;;;;;;5.53;4.90;;;;;;;;;;4991670;28;20034;-55
2020/12/25 20:29:30;;;;;;;6.50;4.33;;;;;;;;;;4991952;28;20089;-56
2020/12/25 20:38:28;;;;;;;5.83;3.37;;;;;;;;;;5032663;28;20045;-56
2020/12/25 20:41:00;;;;;;;5.47;3.73;;;;;;;;;;5032028;28;20113;-56
2020/12/25 20:43:38;;;;;;;5.67;3.20;;;;;;;;;;5032264;28;20556;-58
2020/12/25 20:46:15;;;;;;;7.30;3.90;;;;;;;;;;5024772;28;20352;-58
2020/12/25 20:49:11;;;;;;;4.10;2.77;;;;;;;;;;5032469;28;20037;-55
2020/12/25 20:52:14;;;;;;;4.57;3.87;;;;;;;;;;5032507;28;20061;-58
2020/12/25 20:54:55;;;;;;;5.10;4.10;;;;;;;;;;5032536;28;20032;-58
2020/12/25 20:57:49;;;;;;;4.37;3.63;;;;;;;;;;5032245;28;20100;-57
2020/12/25 21:06:33;;;;;;;4.20;3.73;;;;;;;;;;5010459;28;20042;-58
2020/12/25 21:09:09;;;;;;;4.83;4.10;;;;;;;;;;4989792;28;20558;-57
2020/12/25 21:15:17;;;;;;;5.73;4.00;;;;;;;;;;4991058;28;20061;-57
2020/12/25 21:19:26;;;;;;;6.00;3.92;;;;;;;;;;4988153;28;20150;-57
2020/12/25 21:21:38;;;;;;;4.85;3.47;;;;;;;;;;4945057;28;20576;-58
2020/12/25 21:30:27;;;;;;;6.47;3.97;;;;;;;;;;5051571;28;20483;-58
2020/12/25 21:36:17;;;;;;;;;;;;;;;;;;;;;
2020/12/25 21:38:55;;;;;;;7.13;3.70;;;;;;;;;;5048825;28;20088;-57
2020/12/25 21:41:26;;;;;;;6.70;3.40;;;;;;;;;;5085633;28;20101;-59
2020/12/25 21:44:08;;;;;;;10.07;4.47;;;;;;;;;;5083671;28;20028;-57
2020/12/25 21:46:37;;;;;;;5.33;3.67;;;;;;;;;;5075040;28;20104;-58
2020/12/25 21:49:17;;;;;;;6.43;3.80;;;;;;;;;;5079138;28;20425;-57
2020/12/25 21:52:27;;;;;;;7.27;3.63;;;;;;;;;;5068615;28;20503;-57
2020/12/25 21:54:58;;;;;;;3.50;3.13;;;;;;;;;;4987058;28;20035;-57
2020/12/25 21:58:12;;;;;;;4.67;3.40;;;;;;;;;;4986574;28;20063;-56
2020/12/25 22:03:57;;;;;;;5.20;3.83;;;;;;;;;;5041388;28;20098;-57
2020/12/25 22:09:46;;;;;;;;;;;;;;;;;;5006615;28;20042;-58
2020/12/25 22:12:15;;;;;;;3.80;2.33;;;;;;;;;;5066570;28;19913;-57
2020/12/25 22:14:57;;;;;;;;;;;;;;;;;;;;;
2020/12/25 22:17:57;;;;;;;4.77;3.43;;;;;;;;;;5067276;28;20064;-58
2020/12/25 22:20:38;;;;;;;7.63;4.33;;;;;;;;;;5066380;28;20037;-56
2020/12/25 22:23:46;;;;;;;4.90;4.37;;;;;;;;;;5066078;28;20068;-54
2020/12/25 22:35:06;;;;;;;5.50;4.50;;;;;;;;;;5065582;28;20072;-58
2020/12/25 22:38:06;;;;;;;6.23;4.23;;;;;;;;;;5067087;28;20017;-55
2020/12/25 22:41:03;;;;;;;7.35;4.10;;;;;;;;;;5068345;28;20029;-57
2020/12/25 22:43:39;;;;;;;4.20;3.30;;;;;;;;;;5067693;28;20037;-58
2020/12/25 22:46:20;;;;;;;7.07;4.33;;;;;;;;;;5068781;28;20748;-59
2020/12/25 22:48:55;;;;;;;;;;;;;;;;;;5069005;28;20044;-58
2020/12/25 22:57:10;;;;;;;10.37;5.33;;;;;;;;;;5062006;28;20041;-58
2020/12/25 23:03:19;;;;;;;6.53;4.57;;;;;;;;;;5028997;28;20034;-57
2020/12/25 23:06:06;;;;;;;6.27;4.40;;;;;;;;;;5045359;28;20050;-59
2020/12/25 23:11:38;;;;;;;6.40;4.50;;;;;;;;;;5067354;28;20500;-58
2020/12/25 23:14:27;;;;;;;7.20;4.73;;;;;;;;;;5066736;28;20021;-58
2020/12/25 23:17:05;;;;;;;11.97;6.20;;;;;;;;;;5067945;28;20041;-57
2020/12/25 23:19:38;;;;;;;7.47;4.33;;;;;;;;;;5067744;28;20037;-58
2020/12/25 23:22:25;;;;;;;;;;;;;;;;;;;;;
2020/12/25 23:25:12;;;;;;;11.83;5.13;;;;;;;;;;5067886;28;20059;-59
2020/12/25 23:31:08;;;;;;;9.63;5.70;;;;;;;;;;5067611;28;20036;-56
2020/12/25 23:34:04;;;;;;;10.03;6.03;;;;;;;;;;5065992;28;20052;-59
2020/12/25 23:36:42;;;;;;;10.30;6.13;;;;;;;;;;5067096;28;20025;-58
2020/12/25 23:42:32;;;;;;;9.38;5.70;;;;;;;;;;5065847;28;20099;-58
2020/12/25 23:45:29;;;;;;;9.47;6.33;;;;;;;;;;5066881;28;20035;-57
2020/12/25 23:48:14;;;;;;;8.37;5.57;;;;;;;;;;5054138;28;20037;-56
2020/12/25 23:51:11;;;;;;;7.97;5.60;;;;;;;;;;5067110;28;20059;-58
2020/12/25 23:53:41;;;;;;;10.10;6.90;;;;;;;;;;5065765;28;20065;-56
2020/12/25 23:56:40;;;;;;;8.77;6.93;;;;;;;;;;5067310;28;20036;-57
2020/12/25 23:59:28;;;;;;;8.70;5.63;;;;;;;;;;5067330;28;20424;-59
